createdAt,value
2017-06-10T07:01:14.532Z,425
2017-06-10T07:01:55.303Z,430
2017-06-10T07:02:35.776Z,430
2017-06-10T07:03:16.200Z,435
2017-06-10T07:03:56.622Z,445
2017-06-10T07:04:37.012Z,445
2017-06-10T07:05:17.444Z,450
2017-06-10T07:05:57.934Z,455
2017-06-10T07:06:38.322Z,460
2017-06-10T07:07:18.751Z,465
2017-06-10T07:07:59.168Z,470
2017-06-10T07:08:39.542Z,475
2017-06-10T07:09:19.956Z,475
2017-06-10T07:10:00.393Z,490
2017-06-10T07:10:40.829Z,490
2017-06-10T07:11:21.240Z,500
2017-06-10T07:12:01.628Z,505
2017-06-10T07:12:42.030Z,515
2017-06-10T07:13:23.191Z,525
2017-06-10T07:14:03.644Z,540
2017-06-10T07:14:44.123Z,545
2017-06-10T07:15:24.517Z,560
2017-06-10T07:16:04.943Z,575
2017-06-10T07:16:45.410Z,585
2017-06-10T07:17:26.728Z,600
2017-06-10T07:18:07.162Z,620
2017-06-10T07:20:36.494Z,685
2017-06-10T07:21:16.930Z,710
2017-06-10T07:21:57.571Z,730
2017-06-10T07:22:37.994Z,760
2017-06-10T07:23:18.391Z,790
2017-06-10T07:23:58.795Z,835
2017-06-10T07:24:39.221Z,1190
2017-06-10T07:25:19.635Z,1760
2017-06-10T07:26:00.021Z,2305
2017-06-10T07:26:40.488Z,2480
2017-06-10T07:27:20.856Z,2560
2017-06-10T07:28:01.396Z,2630
2017-06-10T07:28:41.807Z,2755
2017-06-10T07:31:55.112Z,90
2017-06-10T07:32:35.576Z,90
2017-06-10T07:33:16.031Z,90
2017-06-10T07:33:56.490Z,90
2017-06-10T07:34:36.953Z,90
2017-06-10T07:35:17.411Z,85
2017-06-10T07:35:57.875Z,90
2017-06-10T07:36:38.337Z,65
2017-06-10T07:37:18.790Z,75
2017-06-10T07:37:59.250Z,70
2017-06-10T07:38:39.719Z,50
2017-06-10T07:39:20.172Z,50
2017-06-10T07:40:00.628Z,50
2017-06-10T07:40:41.094Z,10
2017-06-10T07:41:21.553Z,50
2017-06-10T07:42:02.012Z,50
2017-06-10T07:42:42.474Z,50
2017-06-10T07:43:22.924Z,50
2017-06-10T07:44:03.388Z,50
2017-06-10T07:44:43.867Z,50
2017-06-10T07:45:24.324Z,55
2017-06-10T07:46:04.782Z,55
2017-06-10T07:46:45.242Z,55
2017-06-10T07:47:25.698Z,55
2017-06-10T07:48:06.198Z,55
2017-06-10T07:48:46.657Z,55
2017-06-10T07:49:27.120Z,55
2017-06-10T07:50:07.606Z,55
2017-06-10T07:50:48.060Z,55
2017-06-10T07:51:28.558Z,55
2017-06-10T07:52:09.010Z,55
2017-06-10T07:52:49.468Z,55
2017-06-10T07:53:29.929Z,55
2017-06-10T07:54:10.384Z,55
2017-06-10T07:54:50.841Z,55
2017-06-10T07:55:31.293Z,55
2017-06-10T07:56:11.754Z,55
2017-06-10T07:56:52.210Z,60
2017-06-10T07:57:32.674Z,60
2017-06-10T07:58:13.126Z,60
2017-06-10T07:58:53.594Z,60
2017-06-10T07:59:34.067Z,60
2017-06-10T08:00:14.521Z,60
2017-06-10T08:00:54.977Z,60
2017-06-10T08:01:35.434Z,60
2017-06-10T08:02:15.893Z,60
2017-06-10T08:02:56.353Z,60
2017-06-10T08:03:36.807Z,60
2017-06-10T08:04:17.264Z,60
2017-06-10T08:04:57.725Z,60
2017-06-10T08:05:38.181Z,60
2017-06-10T08:06:18.639Z,60
2017-06-10T08:06:59.103Z,60
2017-06-10T08:07:39.559Z,65
2017-06-10T08:08:20.020Z,65
2017-06-10T08:09:00.479Z,65
2017-06-10T08:09:40.943Z,65
2017-06-10T08:10:21.406Z,65
2017-06-10T08:11:01.865Z,65
2017-06-10T08:11:42.332Z,65
2017-06-10T08:12:22.802Z,65
2017-06-10T08:13:03.253Z,65
2017-06-10T08:13:43.703Z,65
2017-06-10T08:14:24.161Z,65
2017-06-10T08:15:04.609Z,65
2017-06-10T08:15:45.070Z,65
2017-06-10T08:16:25.501Z,65
2017-06-10T08:17:05.970Z,70
2017-06-10T08:17:46.430Z,70
2017-06-10T08:18:26.894Z,70
2017-06-10T08:19:07.366Z,70
2017-06-10T08:19:47.809Z,70
2017-06-10T08:20:28.262Z,70
2017-06-10T08:21:08.724Z,70
2017-06-10T08:21:49.177Z,70
2017-06-10T08:22:29.639Z,70
2017-06-10T08:23:10.100Z,70
2017-06-10T08:23:50.553Z,40
2017-06-10T08:24:31.007Z,30
2017-06-10T08:25:11.466Z,40
2017-06-10T08:25:51.936Z,30
2017-06-10T08:26:32.393Z,30
2017-06-10T08:27:12.857Z,30
2017-06-10T08:27:53.319Z,35
2017-06-10T08:28:33.777Z,70
2017-06-10T08:29:14.235Z,70
2017-06-10T08:29:54.694Z,40
2017-06-10T08:30:35.154Z,85
2017-06-10T08:31:15.609Z,90
2017-06-10T08:31:56.062Z,35
2017-06-10T08:32:36.524Z,35
2017-06-10T08:33:16.985Z,35
2017-06-10T08:33:57.448Z,40
2017-06-10T08:34:37.902Z,40
2017-06-10T08:35:18.360Z,95
2017-06-10T08:35:58.819Z,70
2017-06-10T08:36:39.266Z,95
2017-06-10T08:37:19.720Z,80
2017-06-10T08:38:00.180Z,50
2017-06-10T08:38:40.638Z,40
2017-06-10T08:39:21.095Z,40
2017-06-10T08:40:01.566Z,40
2017-06-10T08:40:42.016Z,40
2017-06-10T08:41:22.486Z,95
2017-06-10T08:42:02.932Z,85
2017-06-10T08:42:43.400Z,40
2017-06-10T08:43:23.862Z,35
2017-06-10T08:44:04.320Z,40
2017-06-10T08:44:44.776Z,35
2017-06-10T08:45:25.224Z,35
2017-06-10T08:46:05.681Z,40
2017-06-10T08:46:46.136Z,40
2017-06-10T08:47:26.579Z,40
2017-06-10T08:48:07.042Z,40
2017-06-10T08:48:47.529Z,65
2017-06-10T08:49:27.986Z,95
2017-06-10T08:50:08.443Z,45
2017-06-10T08:50:48.901Z,95
2017-06-10T08:51:29.386Z,95
2017-06-10T08:52:09.817Z,95
2017-06-10T08:52:50.278Z,95
2017-06-10T08:53:30.734Z,95
2017-06-10T08:54:11.177Z,95
2017-06-10T08:54:51.646Z,95
2017-06-10T08:55:32.100Z,95
2017-06-10T08:56:12.549Z,95
2017-06-10T08:56:53.003Z,95
2017-06-10T08:57:33.473Z,95
2017-06-10T08:58:13.932Z,100
2017-06-10T08:58:54.395Z,105
2017-06-10T08:59:34.852Z,70
2017-06-10T09:00:15.294Z,45
2017-06-10T09:00:55.753Z,45
2017-06-10T09:01:36.213Z,40
2017-06-10T09:02:16.669Z,100
2017-06-10T09:02:57.129Z,90
2017-06-10T09:03:37.604Z,40
2017-06-10T09:04:18.057Z,40
2017-06-10T09:04:58.514Z,40
2017-06-10T09:05:38.974Z,55
2017-06-10T09:06:19.560Z,100
2017-06-10T09:07:00.022Z,100
2017-06-10T09:07:40.520Z,100
2017-06-10T09:08:20.931Z,95
2017-06-10T09:09:01.380Z,100
2017-06-10T09:09:41.848Z,100
2017-06-10T09:10:22.310Z,100
2017-06-10T09:11:02.769Z,100
2017-06-10T09:11:43.228Z,100
2017-06-10T09:12:23.683Z,100
2017-06-10T09:13:04.150Z,100
2017-06-10T09:13:44.608Z,100
2017-06-10T09:14:25.063Z,100
2017-06-10T09:15:05.523Z,100
2017-06-10T09:15:45.977Z,100
2017-06-10T09:16:26.481Z,100
2017-06-10T09:17:06.936Z,100
2017-06-10T09:17:47.394Z,100
2017-06-10T09:18:27.851Z,100
2017-06-10T09:19:08.314Z,100
2017-06-10T09:19:48.770Z,100
2017-06-10T09:20:29.221Z,100
2017-06-10T09:21:09.680Z,100
2017-06-10T09:21:50.137Z,100
2017-06-10T09:22:30.596Z,100
2017-06-10T09:23:11.051Z,100
2017-06-10T09:23:51.509Z,100
2017-06-10T09:24:31.961Z,35
2017-06-10T09:25:12.421Z,35
2017-06-10T09:25:52.875Z,40
2017-06-10T09:26:33.327Z,35
2017-06-10T09:27:13.793Z,35
2017-06-10T09:27:54.246Z,30
2017-06-10T09:28:34.703Z,70
2017-06-10T09:29:15.165Z,30
2017-06-10T09:29:55.629Z,100
2017-06-10T09:30:36.087Z,100
2017-06-10T09:31:16.549Z,100
2017-06-10T09:31:57.007Z,100
2017-06-10T09:32:37.461Z,100
2017-06-10T09:33:17.918Z,100
2017-06-10T09:33:58.371Z,100
2017-06-10T09:34:38.829Z,100
2017-06-10T09:35:19.286Z,100
2017-06-10T09:35:59.743Z,95
2017-06-10T09:36:40.206Z,95
2017-06-10T09:37:20.662Z,95
2017-06-10T09:38:01.229Z,95
2017-06-10T09:38:41.596Z,95
2017-06-10T09:39:22.059Z,95
2017-06-10T09:40:02.517Z,95
2017-06-10T09:40:42.974Z,95
2017-06-10T09:41:23.435Z,95
2017-06-10T09:42:03.898Z,95
2017-06-10T09:42:44.349Z,95
2017-06-10T09:43:24.813Z,95
2017-06-10T09:44:05.268Z,95
2017-06-10T09:44:45.727Z,95
2017-06-10T09:45:26.185Z,95
2017-06-10T09:46:06.643Z,95
2017-06-10T09:46:47.122Z,95
2017-06-10T09:47:27.579Z,95
2017-06-10T09:48:08.032Z,95
2017-06-10T09:48:48.495Z,95
2017-06-10T09:49:28.952Z,95
2017-06-10T09:50:09.406Z,95
2017-06-10T09:50:49.864Z,95
2017-06-10T09:51:30.326Z,95
2017-06-10T09:52:10.791Z,95
2017-06-10T09:52:51.244Z,95
2017-06-10T09:53:31.704Z,95
2017-06-10T09:54:12.163Z,95
2017-06-10T09:54:52.623Z,95
2017-06-10T09:55:33.080Z,95
2017-06-10T09:56:13.538Z,95
2017-06-10T09:56:53.993Z,95
2017-06-10T09:57:34.453Z,95
2017-06-10T09:58:14.914Z,95
2017-06-10T09:58:55.367Z,95
2017-06-10T09:59:35.826Z,95
2017-06-10T10:00:16.295Z,95
2017-06-10T10:00:56.762Z,95
2017-06-10T10:01:37.216Z,95
2017-06-10T10:02:17.673Z,95
2017-06-10T10:02:58.129Z,95
2017-06-10T10:03:38.583Z,95
2017-06-10T10:04:19.028Z,95
2017-06-10T10:04:59.485Z,95
2017-06-10T10:05:39.945Z,95
2017-06-10T10:06:20.399Z,95
2017-06-10T10:07:00.860Z,95
2017-06-10T10:07:41.325Z,95
2017-06-10T10:08:21.786Z,95
2017-06-10T10:09:02.247Z,95
2017-06-10T10:09:42.704Z,95
2017-06-10T10:10:23.162Z,95
2017-06-10T10:11:03.598Z,95
2017-06-10T10:11:44.056Z,95
2017-06-10T10:12:24.510Z,95
2017-06-10T10:13:04.952Z,95
2017-06-10T10:13:45.412Z,95
2017-06-10T10:14:25.867Z,95
2017-06-10T10:15:06.320Z,95
2017-06-10T10:15:46.785Z,95
2017-06-10T10:16:27.239Z,95
2017-06-10T10:17:07.702Z,95
2017-06-10T10:17:48.165Z,95
2017-06-10T10:18:28.619Z,95
2017-06-10T10:19:09.078Z,95
2017-06-10T10:19:49.536Z,95
2017-06-10T10:20:29.985Z,95
2017-06-10T10:21:10.445Z,95
2017-06-10T10:21:50.892Z,95
2017-06-10T10:22:31.351Z,95
2017-06-10T10:23:11.808Z,95
2017-06-10T10:23:52.271Z,95
2017-06-10T10:24:32.726Z,95
2017-06-10T10:25:13.181Z,95
2017-06-10T10:25:53.662Z,95
2017-06-10T10:26:34.120Z,95
2017-06-10T10:27:14.581Z,95
2017-06-10T10:27:55.032Z,95
2017-06-10T10:28:35.493Z,100
2017-06-10T10:29:15.955Z,100
2017-06-10T10:29:56.411Z,100
2017-06-10T10:30:36.868Z,100
2017-06-10T10:31:17.328Z,100
2017-06-10T10:31:57.791Z,100
2017-06-10T10:32:38.239Z,60
2017-06-10T10:33:18.710Z,95
2017-06-10T10:33:59.159Z,100
2017-06-10T10:34:39.630Z,95
2017-06-10T10:35:20.102Z,80
2017-06-10T10:36:00.566Z,100
2017-06-10T10:36:41.025Z,65
2017-06-10T10:37:21.488Z,40
2017-06-10T10:38:01.951Z,40
2017-06-10T10:38:42.411Z,85
2017-06-10T10:39:22.873Z,100
2017-06-10T10:40:03.318Z,100
2017-06-10T10:40:43.787Z,100
2017-06-10T10:41:24.244Z,100
2017-06-10T10:42:04.711Z,95
2017-06-10T10:42:45.170Z,95
2017-06-10T10:43:25.629Z,95
2017-06-10T10:44:06.087Z,95
2017-06-10T10:44:46.549Z,95
2017-06-10T10:45:27.005Z,95
2017-06-10T10:46:07.471Z,70
2017-06-10T10:46:47.929Z,40
2017-06-10T10:47:28.397Z,40
2017-06-10T10:48:08.851Z,45
2017-06-10T10:48:49.315Z,45
2017-06-10T10:49:29.769Z,40
2017-06-10T10:50:10.236Z,95
2017-06-10T10:50:50.693Z,40
2017-06-10T10:51:31.159Z,35
2017-06-10T10:52:11.618Z,35
2017-06-10T10:52:52.074Z,35
2017-06-10T10:53:32.538Z,35
2017-06-10T10:54:12.994Z,35
2017-06-10T10:54:53.450Z,35
2017-06-10T10:55:33.906Z,35
2017-06-10T10:56:14.370Z,35
2017-06-10T10:56:54.810Z,35
2017-06-10T10:57:35.266Z,35
2017-06-10T10:58:15.720Z,40
2017-06-10T10:58:56.179Z,90
2017-06-10T10:59:36.643Z,90
2017-06-10T11:00:17.090Z,90
2017-06-10T11:00:57.565Z,90
2017-06-10T11:01:38.020Z,95
2017-06-10T11:02:18.474Z,95
2017-06-10T11:02:58.958Z,95
2017-06-10T11:03:39.421Z,90
2017-06-10T11:04:19.873Z,90
2017-06-10T11:05:00.339Z,80
2017-06-10T11:05:40.793Z,90
2017-06-10T11:06:21.266Z,90
2017-06-10T11:07:01.730Z,90
2017-06-10T11:07:42.200Z,90
2017-06-10T11:08:22.729Z,90
2017-06-10T11:09:03.183Z,90
2017-06-10T11:09:43.678Z,90
2017-06-10T11:10:24.094Z,90
2017-06-10T11:11:04.569Z,90
2017-06-10T11:11:45.045Z,90
2017-06-10T11:12:25.506Z,45
2017-06-10T11:13:05.966Z,40
2017-06-10T11:13:46.435Z,40
2017-06-10T11:14:26.894Z,60
2017-06-10T11:15:07.349Z,90
2017-06-10T11:15:47.814Z,85
2017-06-10T11:16:28.261Z,85
2017-06-10T11:17:08.715Z,90
2017-06-10T11:17:49.173Z,90
2017-06-10T11:18:29.637Z,90
2017-06-10T11:19:10.100Z,90
2017-06-10T11:19:50.556Z,90
2017-06-10T11:20:31.038Z,75
2017-06-10T11:21:11.472Z,80
2017-06-10T11:21:51.928Z,90
2017-06-10T11:22:32.385Z,70
2017-06-10T11:23:12.846Z,70
2017-06-10T11:23:53.298Z,50
2017-06-10T11:24:33.751Z,70
2017-06-10T11:25:14.213Z,55
2017-06-10T11:25:54.671Z,55
2017-06-10T11:26:35.133Z,50
2017-06-10T11:27:15.592Z,50
2017-06-10T11:27:56.046Z,45
2017-06-10T11:28:36.510Z,50
2017-06-10T11:29:16.987Z,65
2017-06-10T11:29:57.426Z,65
2017-06-10T11:30:37.890Z,80
2017-06-10T11:31:18.388Z,85
2017-06-10T11:31:58.812Z,70
2017-06-10T11:32:39.271Z,75
2017-06-10T11:33:19.740Z,75
2017-06-10T11:34:00.201Z,75
2017-06-10T11:34:40.703Z,75
2017-06-10T11:35:21.157Z,70
2017-06-10T11:36:01.621Z,65
2017-06-10T11:36:42.078Z,60
2017-06-10T11:37:22.529Z,75
2017-06-10T11:38:02.973Z,65
2017-06-10T11:38:43.439Z,45
2017-06-10T11:39:23.909Z,40
2017-06-10T11:40:04.366Z,40
2017-06-10T11:40:44.826Z,40
2017-06-10T11:41:25.367Z,35
2017-06-10T11:42:05.827Z,60
2017-06-10T11:42:46.403Z,70
2017-06-10T11:43:26.862Z,75
2017-06-10T11:44:07.332Z,70
2017-06-10T11:44:47.790Z,70
2017-06-10T11:45:28.239Z,70
2017-06-10T11:46:08.702Z,70
2017-06-10T11:46:49.155Z,70
2017-06-10T11:47:29.599Z,40
2017-06-10T11:48:10.042Z,35
2017-06-10T11:48:50.499Z,30
2017-06-10T11:49:30.964Z,30
2017-06-10T11:50:11.479Z,30
2017-06-10T11:50:51.942Z,30
2017-06-10T11:51:32.399Z,30
2017-06-10T11:52:12.844Z,35
2017-06-10T11:52:53.304Z,60
2017-06-10T11:53:33.768Z,60
2017-06-10T11:54:14.271Z,35
2017-06-10T11:54:54.734Z,55
2017-06-10T11:55:35.188Z,60
2017-06-10T11:56:15.649Z,55
2017-06-10T11:56:56.110Z,50
2017-06-10T11:57:36.561Z,50
2017-06-10T11:58:17.023Z,55
2017-06-10T11:58:57.477Z,55
2017-06-10T11:59:37.932Z,60
2017-06-10T12:00:18.389Z,60
2017-06-10T12:00:58.851Z,60
2017-06-10T12:01:39.309Z,60
2017-06-10T12:02:19.769Z,60
2017-06-10T12:03:00.230Z,60
2017-06-10T12:03:40.670Z,40
2017-06-10T12:04:21.132Z,30
2017-06-10T12:05:01.589Z,30
2017-06-10T12:05:42.051Z,55
2017-06-10T12:06:22.514Z,40
2017-06-10T12:07:02.972Z,30
2017-06-10T12:07:43.432Z,35
2017-06-10T12:08:23.897Z,35
2017-06-10T12:09:04.346Z,35
2017-06-10T12:09:44.808Z,35
2017-06-10T12:10:25.268Z,55
2017-06-10T12:11:05.725Z,50
2017-06-10T12:11:46.181Z,55
2017-06-10T12:14:04.296Z,45
2017-06-10T12:14:44.751Z,35
2017-06-10T12:15:25.210Z,30
2017-06-10T12:16:05.668Z,30
2017-06-10T12:16:46.121Z,30
2017-06-10T12:17:26.573Z,30
2017-06-10T12:18:07.012Z,50
2017-06-10T12:18:47.471Z,50
2017-06-10T12:19:27.928Z,40
2017-06-10T12:20:08.386Z,55
2017-06-10T12:20:49.043Z,55
2017-06-10T12:21:29.589Z,55
2017-06-10T12:22:10.146Z,60
2017-06-10T12:22:50.608Z,50
2017-06-10T12:23:31.083Z,45
2017-06-10T12:24:11.526Z,50
2017-06-10T12:24:51.984Z,45
2017-06-10T12:25:32.436Z,45
2017-06-10T12:26:12.902Z,40
2017-06-10T12:26:53.360Z,40
2017-06-10T12:27:33.816Z,40
2017-06-10T12:28:14.271Z,40
2017-06-10T12:28:54.722Z,45
2017-06-10T12:29:35.171Z,45
2017-06-10T12:30:15.625Z,45
2017-06-10T12:30:56.085Z,45
2017-06-10T12:31:36.547Z,50
2017-06-10T12:32:16.989Z,50
2017-06-10T12:32:57.449Z,60
2017-06-10T12:33:37.901Z,55
2017-06-10T12:34:18.357Z,55
2017-06-10T12:34:58.810Z,55
2017-06-10T12:35:39.260Z,50
2017-06-10T12:36:19.726Z,50
2017-06-10T12:37:00.180Z,50
2017-06-10T12:37:40.659Z,50
2017-06-10T12:38:21.110Z,55
2017-06-10T12:39:01.579Z,60
2017-06-10T12:39:42.040Z,60
2017-06-10T12:40:22.494Z,60
2017-06-10T12:41:02.950Z,65
2017-06-10T12:41:43.401Z,70
2017-06-10T12:42:23.866Z,55
2017-06-10T12:43:04.325Z,55
2017-06-10T12:43:44.787Z,50
2017-06-10T12:44:25.224Z,50
2017-06-10T12:45:05.682Z,50
2017-06-10T12:45:46.141Z,50
2017-06-10T12:46:26.637Z,55
2017-06-10T12:47:07.094Z,50
2017-06-10T12:47:47.553Z,45
2017-06-10T12:48:28.005Z,60
2017-06-10T12:49:08.463Z,40
2017-06-10T12:49:48.917Z,50
2017-06-10T12:50:29.370Z,50
2017-06-10T12:51:09.822Z,55
2017-06-10T12:53:42.936Z,50
2017-06-10T12:54:23.387Z,45
2017-06-10T12:55:03.852Z,45
2017-06-10T12:55:44.311Z,40
2017-06-10T12:56:24.771Z,45
2017-06-10T12:57:05.219Z,40
2017-06-10T12:57:45.680Z,40
2017-06-10T12:58:26.167Z,40
2017-06-10T12:59:06.610Z,40
2017-06-10T12:59:47.073Z,40
2017-06-10T13:00:27.529Z,40
2017-06-10T13:01:07.990Z,35
2017-06-10T13:01:48.446Z,35
2017-06-10T13:02:28.931Z,35
2017-06-10T13:03:09.345Z,35
2017-06-10T13:03:49.799Z,35
2017-06-10T13:04:30.256Z,35
2017-06-10T13:05:10.715Z,35
2017-06-10T13:05:51.167Z,35
2017-06-10T13:06:31.623Z,35
2017-06-10T13:07:12.078Z,35
2017-06-10T13:07:52.531Z,30
2017-06-10T13:08:32.990Z,25
2017-06-10T13:09:13.450Z,20
2017-06-10T13:09:53.899Z,20
2017-06-10T13:14:01.234Z,25
2017-06-10T13:14:41.776Z,25
2017-06-10T13:15:22.283Z,25
2017-06-10T13:16:02.876Z,25
2017-06-10T13:16:43.331Z,35
2017-06-10T13:17:23.785Z,35
2017-06-10T13:18:04.246Z,35
2017-06-10T13:18:44.699Z,30
2017-06-10T13:19:25.358Z,35
2017-06-10T13:20:05.817Z,35
2017-06-10T13:20:46.267Z,30
2017-06-10T13:21:26.896Z,25
2017-06-10T13:22:07.341Z,30
2017-06-10T13:22:47.807Z,30
2017-06-10T13:25:26.407Z,30
2017-06-10T13:26:06.999Z,30
2017-06-10T13:26:47.459Z,30
2017-06-10T13:27:27.941Z,35
2017-06-10T13:28:08.402Z,35
2017-06-10T13:28:48.858Z,30
2017-06-10T13:29:29.313Z,30
2017-06-10T13:32:07.552Z,30
2017-06-10T13:32:48.010Z,35
2017-06-10T13:33:28.462Z,30
2017-06-10T13:34:08.931Z,25
2017-06-10T13:34:49.384Z,25
2017-06-10T13:35:29.830Z,30
2017-06-10T13:36:10.277Z,25
2017-06-10T13:36:50.728Z,25
2017-06-10T13:37:31.176Z,25
2017-06-10T13:38:11.621Z,25
2017-06-10T13:38:52.082Z,25
2017-06-10T13:39:32.596Z,25
2017-06-10T13:40:13.049Z,30
2017-06-10T13:40:53.501Z,25
2017-06-10T13:41:33.941Z,25
2017-06-10T13:42:14.453Z,20
2017-06-10T13:42:54.840Z,20
2017-06-10T13:43:35.287Z,20
2017-06-10T13:44:15.741Z,20
2017-06-10T13:44:56.194Z,20
2017-06-10T13:45:36.653Z,20
2017-06-10T13:46:17.085Z,20
2017-06-10T13:46:57.610Z,25
2017-06-10T13:47:38.100Z,25
2017-06-10T13:48:18.563Z,30
2017-06-10T13:48:59.035Z,25
2017-06-10T13:49:39.505Z,30
2017-06-10T13:50:19.972Z,30
2017-06-10T13:51:00.414Z,25
2017-06-10T13:51:40.862Z,25
2017-06-10T13:52:21.309Z,25
2017-06-10T13:53:01.769Z,25
2017-06-10T13:53:42.220Z,25
2017-06-10T13:54:22.669Z,25
2017-06-10T13:55:03.137Z,25
2017-06-10T13:55:43.587Z,20
2017-06-10T13:56:24.185Z,20
2017-06-10T13:57:04.629Z,20
2017-06-10T13:57:45.168Z,20
2017-06-10T13:58:25.630Z,25
2017-06-10T14:00:54.024Z,25
2017-06-10T14:01:34.481Z,25
2017-06-10T14:02:14.926Z,25
2017-06-10T14:02:55.388Z,25
2017-06-10T14:03:35.845Z,25
2017-06-10T14:04:16.310Z,25
2017-06-10T14:04:56.757Z,25
2017-06-10T14:05:37.214Z,25
2017-06-10T14:06:17.682Z,25
2017-06-10T14:06:58.135Z,25
2017-06-10T14:07:38.623Z,25
2017-06-10T14:08:19.071Z,30
2017-06-10T14:08:59.527Z,30
2017-06-10T14:09:39.982Z,30
2017-06-10T14:10:20.435Z,30
2017-06-10T14:11:00.892Z,25
2017-06-10T14:11:41.345Z,25
2017-06-10T14:12:21.845Z,25
2017-06-10T14:13:02.314Z,25
2017-06-10T14:13:42.767Z,25
2017-06-10T14:14:23.239Z,20
2017-06-10T14:15:03.767Z,20
2017-06-10T14:15:44.238Z,25
2017-06-10T14:16:24.691Z,25
2017-06-10T14:17:05.147Z,25
2017-06-10T14:17:45.612Z,25
2017-06-10T14:18:26.068Z,25
2017-06-10T14:19:06.568Z,25
2017-06-10T14:19:47.045Z,25
2017-06-10T14:20:27.505Z,20
2017-06-10T14:21:07.978Z,20
2017-06-10T14:21:48.519Z,20
2017-06-10T14:22:29.236Z,25
2017-06-10T14:23:09.691Z,25
2017-06-10T14:23:50.168Z,25
2017-06-10T14:24:30.668Z,25
2017-06-10T14:25:11.123Z,25
2017-06-10T14:25:51.582Z,25
2017-06-10T14:26:32.042Z,25
2017-06-10T14:27:12.499Z,25
2017-06-10T14:27:52.958Z,20
2017-06-10T14:28:33.443Z,20
2017-06-10T14:29:14.016Z,20
2017-06-10T14:29:54.473Z,20
2017-06-10T14:30:34.935Z,20
2017-06-10T14:31:15.409Z,20
2017-06-10T14:31:55.872Z,20
2017-06-10T14:32:36.330Z,20
2017-06-10T14:33:16.790Z,20
2017-06-10T14:33:57.733Z,20
2017-06-10T14:34:38.417Z,20
2017-06-10T14:35:18.868Z,20
2017-06-10T14:35:59.415Z,20
2017-06-10T14:36:39.903Z,20
2017-06-10T14:37:20.365Z,20
2017-06-10T14:38:00.818Z,20
2017-06-10T14:38:41.273Z,20
2017-06-10T14:39:21.738Z,20
2017-06-10T14:40:02.197Z,20
2017-06-10T14:40:42.647Z,20
2017-06-10T14:41:23.104Z,20
2017-06-10T14:42:03.563Z,20
2017-06-10T14:42:44.024Z,20
2017-06-10T14:43:24.482Z,20
2017-06-10T14:44:04.946Z,20
2017-06-10T14:44:45.406Z,15
2017-06-10T14:45:25.907Z,15
2017-06-10T14:46:06.367Z,20
2017-06-10T14:46:46.819Z,20
2017-06-10T14:47:27.281Z,15
2017-06-10T14:48:07.733Z,15
2017-06-10T14:48:48.196Z,15
2017-06-10T14:49:28.654Z,20
2017-06-10T14:50:09.110Z,15
2017-06-10T14:50:49.568Z,15
2017-06-10T14:51:30.024Z,20
2017-06-10T14:52:10.483Z,20
2017-06-10T14:52:50.941Z,15
2017-06-10T14:53:31.402Z,20
2017-06-10T14:54:11.863Z,20
2017-06-10T14:54:52.331Z,20
2017-06-10T14:55:32.785Z,20
2017-06-10T14:56:13.251Z,15
2017-06-10T14:56:53.709Z,15
2017-06-10T14:57:34.178Z,15
2017-06-10T14:58:14.638Z,15
2017-06-10T14:58:55.124Z,15
2017-06-10T14:59:35.573Z,15
2017-06-10T15:00:16.025Z,20
2017-06-10T15:00:56.474Z,15
2017-06-10T15:01:36.930Z,20
2017-06-10T15:02:17.388Z,15
2017-06-10T15:02:57.838Z,20
2017-06-10T15:05:25.975Z,20
2017-06-10T15:06:06.431Z,20
2017-06-10T15:06:46.883Z,20
2017-06-10T15:07:27.330Z,20
2017-06-10T15:09:55.374Z,20
2017-06-10T15:10:35.847Z,20
2017-06-10T15:11:16.300Z,20
2017-06-10T15:11:56.760Z,20
2017-06-10T15:12:37.225Z,20
2017-06-10T15:13:17.670Z,15
2017-06-10T15:13:58.123Z,15
2017-06-10T15:14:38.576Z,15
2017-06-10T15:15:19.033Z,15
2017-06-10T15:15:59.525Z,15
2017-06-10T15:16:39.997Z,15
2017-06-10T15:17:20.547Z,15
2017-06-10T15:18:01.045Z,20
2017-06-10T15:18:41.503Z,20
2017-06-10T15:19:21.979Z,20
2017-06-10T15:20:02.407Z,20
2017-06-10T15:20:42.870Z,20
2017-06-10T15:21:23.324Z,20
2017-06-10T15:22:03.775Z,20
2017-06-10T15:22:44.223Z,20
2017-06-10T15:23:24.675Z,15
2017-06-10T15:24:05.130Z,15
2017-06-10T15:24:45.582Z,20
2017-06-10T15:25:26.042Z,20
2017-06-10T15:26:06.514Z,20
2017-06-10T15:26:46.940Z,20
2017-06-10T15:27:27.393Z,20
2017-06-10T15:28:07.837Z,20
2017-06-10T15:28:48.292Z,20
2017-06-10T15:29:28.749Z,20
2017-06-10T15:30:09.211Z,20
2017-06-10T15:30:49.665Z,15
2017-06-10T15:31:30.125Z,15
2017-06-10T15:32:10.581Z,15
2017-06-10T15:32:51.042Z,10
2017-06-10T15:33:31.494Z,10
2017-06-10T15:34:11.951Z,10
2017-06-10T15:34:52.407Z,10
2017-06-10T15:35:32.870Z,10
2017-06-10T15:36:13.315Z,10
2017-06-10T15:36:53.799Z,10
2017-06-10T15:37:34.274Z,10
2017-06-10T15:38:14.718Z,10
2017-06-10T15:38:55.171Z,10
2017-06-10T15:39:35.647Z,10
2017-06-10T15:40:16.124Z,15
2017-06-10T15:40:56.583Z,15
2017-06-10T15:41:37.044Z,15
2017-06-10T15:42:17.496Z,15
2017-06-10T15:42:57.957Z,15
2017-06-10T15:43:38.433Z,15
2017-06-10T15:44:18.882Z,15
2017-06-10T15:44:59.346Z,15
2017-06-10T15:45:39.800Z,15
2017-06-10T15:46:20.258Z,15
2017-06-10T15:47:00.717Z,20
2017-06-10T15:47:41.177Z,20
2017-06-10T15:48:21.635Z,20
2017-06-10T15:49:02.111Z,20
2017-06-10T15:49:42.561Z,20
2017-06-10T15:50:23.021Z,20
2017-06-10T15:51:03.479Z,20
2017-06-10T15:51:43.933Z,20
2017-06-10T15:52:24.406Z,15
2017-06-10T15:53:04.848Z,20
2017-06-10T15:53:45.311Z,20
2017-06-10T15:54:25.767Z,20
2017-06-10T15:55:06.217Z,20
2017-06-10T15:55:46.674Z,20
2017-06-10T15:56:27.137Z,20
2017-06-10T15:57:07.593Z,20
2017-06-10T15:57:48.044Z,20
2017-06-10T15:58:28.503Z,20
2017-06-10T15:59:08.969Z,20
2017-06-10T15:59:49.432Z,20
2017-06-10T16:00:29.899Z,20
2017-06-10T16:01:10.387Z,20
2017-06-10T16:01:50.835Z,20
2017-06-10T16:02:31.285Z,20
2017-06-10T16:03:11.723Z,15
2017-06-10T16:03:52.181Z,20
2017-06-10T16:04:32.645Z,20
2017-06-10T16:05:13.100Z,20
2017-06-10T16:05:53.562Z,20
2017-06-10T16:06:34.019Z,20
2017-06-10T16:07:14.476Z,20
2017-06-10T16:07:54.946Z,20
2017-06-10T16:08:35.404Z,20
2017-06-10T16:09:15.862Z,20
2017-06-10T16:09:56.317Z,20
2017-06-10T16:10:36.789Z,20
2017-06-10T16:11:17.248Z,20
2017-06-10T16:11:57.707Z,20
2017-06-10T16:12:38.165Z,20
2017-06-10T16:13:18.627Z,20
2017-06-10T16:13:59.096Z,15
2017-06-10T16:14:39.533Z,15
2017-06-10T16:15:19.992Z,15
2017-06-10T16:16:00.449Z,15
2017-06-10T16:16:40.906Z,15
2017-06-10T16:17:21.369Z,15
2017-06-10T16:18:01.823Z,15
2017-06-10T16:18:42.284Z,15
2017-06-10T16:19:22.745Z,15
2017-06-10T16:20:03.200Z,15
2017-06-10T16:20:43.665Z,15
2017-06-10T16:21:24.122Z,15
2017-06-10T16:22:04.584Z,15
2017-06-10T16:22:45.040Z,15
2017-06-10T16:23:25.502Z,15
2017-06-10T16:24:06.037Z,15
2017-06-10T16:24:46.503Z,15
2017-06-10T16:25:26.983Z,15
2017-06-10T16:26:07.441Z,15
2017-06-10T16:26:47.901Z,15
2017-06-10T16:27:28.359Z,15
2017-06-10T16:28:08.818Z,15
2017-06-10T16:28:49.276Z,15
2017-06-10T16:29:29.735Z,15
2017-06-10T16:30:10.190Z,15
2017-06-10T16:30:50.641Z,15
2017-06-10T16:31:31.100Z,15
2017-06-10T16:34:04.262Z,15
2017-06-10T16:34:44.715Z,15
2017-06-10T16:35:25.170Z,15
2017-06-10T16:36:05.629Z,15
2017-06-10T16:36:46.081Z,15
2017-06-10T16:37:26.563Z,15
2017-06-10T16:38:07.016Z,15
2017-06-10T16:38:47.479Z,15
2017-06-10T16:39:27.936Z,15
2017-06-10T16:40:08.390Z,15
2017-06-10T16:40:48.872Z,15
2017-06-10T16:41:29.307Z,10
2017-06-10T16:42:09.763Z,10
2017-06-10T16:42:50.223Z,10
2017-06-10T16:43:30.679Z,10
2017-06-10T16:44:11.137Z,10
2017-06-10T16:44:51.587Z,10
2017-06-10T16:45:32.042Z,10
2017-06-10T16:46:12.498Z,10
2017-06-10T16:46:52.956Z,10
2017-06-10T16:47:33.413Z,10
2017-06-10T16:48:13.861Z,10
2017-06-10T16:48:54.323Z,10
2017-06-10T16:49:34.787Z,10
2017-06-10T16:50:15.231Z,10
2017-06-10T16:50:55.690Z,10
2017-06-10T16:51:36.146Z,10
2017-06-10T16:52:16.606Z,10
2017-06-10T16:52:57.073Z,10
2017-06-10T16:53:37.533Z,10
2017-06-10T16:54:17.995Z,10
2017-06-10T16:54:58.451Z,10
2017-06-10T16:55:38.916Z,10
2017-06-10T16:56:19.368Z,10
2017-06-10T16:56:59.824Z,10
2017-06-10T16:57:40.291Z,10
2017-06-10T16:58:20.747Z,10